sensor_id;sensor_type;location;lat;lon;timestamp;P1;durP1;ratioP1;P2;durP2;ratioP2
63350;SDS011;54336;51.058;17.040;2022-10-20T00:04:11;15.02;;;6.88;;
63350;SDS011;54336;51.058;17.040;2022-10-20T00:10:04;15.27;;;6.32;;
63350;SDS011;54336;51.058;17.040;2022-10-20T00:21:50;11.95;;;5.90;;
63350;SDS011;54336;51.058;17.040;2022-10-20T00:27:44;14.27;;;5.72;;
63350;SDS011;54336;51.058;17.040;2022-10-20T00:39:42;20.23;;;8.27;;
63350;SDS011;54336;51.058;17.040;2022-10-20T00:45:34;12.75;;;6.13;;
63350;SDS011;54336;51.058;17.040;2022-10-20T00:51:28;17.42;;;8.25;;
63350;SDS011;54336;51.058;17.040;2022-10-20T00:57:21;19.52;;;8.27;;
63350;SDS011;54336;51.058;17.040;2022-10-20T01:03:19;25.90;;;10.27;;
63350;SDS011;54336;51.058;17.040;2022-10-20T01:09:18;16.40;;;8.45;;
63350;SDS011;54336;51.058;17.040;2022-10-20T01:21:33;22.98;;;8.77;;
63350;SDS011;54336;51.058;17.040;2022-10-20T01:27:37;17.95;;;6.45;;
63350;SDS011;54336;51.058;17.040;2022-10-20T01:45:42;15.40;;;6.47;;
63350;SDS011;54336;51.058;17.040;2022-10-20T01:51:35;13.90;;;6.00;;
63350;SDS011;54336;51.058;17.040;2022-10-20T01:57:40;10.88;;;5.70;;
63350;SDS011;54336;51.058;17.040;2022-10-20T02:09:29;9.77;;;4.72;;
63350;SDS011;54336;51.058;17.040;2022-10-20T02:15:24;9.68;;;6.10;;
63350;SDS011;54336;51.058;17.040;2022-10-20T02:21:17;8.90;;;3.88;;
63350;SDS011;54336;51.058;17.040;2022-10-20T02:27:14;20.45;;;7.10;;
63350;SDS011;54336;51.058;17.040;2022-10-20T02:33:07;16.67;;;6.57;;
63350;SDS011;54336;51.058;17.040;2022-10-20T02:38:59;17.00;;;4.82;;
63350;SDS011;54336;51.058;17.040;2022-10-20T02:44:51;14.95;;;5.75;;
63350;SDS011;54336;51.058;17.040;2022-10-20T02:50:43;14.02;;;5.93;;
63350;SDS011;54336;51.058;17.040;2022-10-20T02:56:35;14.80;;;5.65;;
63350;SDS011;54336;51.058;17.040;2022-10-20T03:02:27;11.15;;;4.82;;
63350;SDS011;54336;51.058;17.040;2022-10-20T03:08:19;12.73;;;5.78;;
63350;SDS011;54336;51.058;17.040;2022-10-20T03:14:11;9.65;;;5.68;;
63350;SDS011;54336;51.058;17.040;2022-10-20T03:20:03;10.90;;;6.03;;
63350;SDS011;54336;51.058;17.040;2022-10-20T03:26:06;12.10;;;5.45;;
63350;SDS011;54336;51.058;17.040;2022-10-20T03:31:58;17.58;;;6.00;;
63350;SDS011;54336;51.058;17.040;2022-10-20T03:37:50;10.73;;;6.10;;
63350;SDS011;54336;51.058;17.040;2022-10-20T03:43:42;9.32;;;5.03;;
63350;SDS011;54336;51.058;17.040;2022-10-20T03:49:34;9.30;;;5.00;;
63350;SDS011;54336;51.058;17.040;2022-10-20T03:55:26;9.48;;;4.50;;
63350;SDS011;54336;51.058;17.040;2022-10-20T04:01:19;8.27;;;4.43;;
63350;SDS011;54336;51.058;17.040;2022-10-20T04:07:12;7.97;;;3.90;;
63350;SDS011;54336;51.058;17.040;2022-10-20T04:13:05;4.82;;;4.00;;
63350;SDS011;54336;51.058;17.040;2022-10-20T04:18:59;8.60;;;3.92;;
63350;SDS011;54336;51.058;17.040;2022-10-20T04:24:52;14.55;;;5.97;;
63350;SDS011;54336;51.058;17.040;2022-10-20T04:30:45;21.30;;;7.85;;
63350;SDS011;54336;51.058;17.040;2022-10-20T04:36:37;20.50;;;8.88;;
63350;SDS011;54336;51.058;17.040;2022-10-20T04:42:29;11.57;;;5.40;;
63350;SDS011;54336;51.058;17.040;2022-10-20T04:48:21;10.57;;;5.20;;
63350;SDS011;54336;51.058;17.040;2022-10-20T04:54:13;17.17;;;6.40;;
63350;SDS011;54336;51.058;17.040;2022-10-20T05:00:06;14.40;;;6.28;;
63350;SDS011;54336;51.058;17.040;2022-10-20T05:06:08;18.70;;;6.80;;
63350;SDS011;54336;51.058;17.040;2022-10-20T05:12:01;16.27;;;5.45;;
63350;SDS011;54336;51.058;17.040;2022-10-20T05:17:53;12.70;;;6.07;;
63350;SDS011;54336;51.058;17.040;2022-10-20T05:23:45;11.75;;;5.47;;
63350;SDS011;54336;51.058;17.040;2022-10-20T05:29:37;16.88;;;7.05;;
63350;SDS011;54336;51.058;17.040;2022-10-20T05:35:30;10.13;;;6.40;;
63350;SDS011;54336;51.058;17.040;2022-10-20T05:41:27;12.30;;;5.30;;
63350;SDS011;54336;51.058;17.040;2022-10-20T05:47:21;13.60;;;6.43;;
63350;SDS011;54336;51.058;17.040;2022-10-20T05:53:14;11.55;;;5.78;;
63350;SDS011;54336;51.058;17.040;2022-10-20T05:59:06;16.33;;;6.07;;
63350;SDS011;54336;51.058;17.040;2022-10-20T06:04:58;14.75;;;6.65;;
63350;SDS011;54336;51.058;17.040;2022-10-20T06:10:50;8.65;;;6.20;;
63350;SDS011;54336;51.058;17.040;2022-10-20T06:16:43;11.70;;;5.90;;
63350;SDS011;54336;51.058;17.040;2022-10-20T06:22:35;12.88;;;5.97;;
63350;SDS011;54336;51.058;17.040;2022-10-20T06:28:30;21.43;;;6.67;;
63350;SDS011;54336;51.058;17.040;2022-10-20T06:34:23;10.63;;;6.15;;
63350;SDS011;54336;51.058;17.040;2022-10-20T06:40:16;16.27;;;6.88;;
63350;SDS011;54336;51.058;17.040;2022-10-20T06:46:10;19.92;;;7.50;;
63350;SDS011;54336;51.058;17.040;2022-10-20T06:52:03;18.52;;;9.35;;
63350;SDS011;54336;51.058;17.040;2022-10-20T06:57:56;18.67;;;8.40;;
63350;SDS011;54336;51.058;17.040;2022-10-20T07:03:49;15.93;;;7.90;;
63350;SDS011;54336;51.058;17.040;2022-10-20T07:09:42;18.55;;;8.35;;
63350;SDS011;54336;51.058;17.040;2022-10-20T07:15:34;14.30;;;7.25;;
63350;SDS011;54336;51.058;17.040;2022-10-20T07:21:28;13.73;;;7.32;;
63350;SDS011;54336;51.058;17.040;2022-10-20T07:27:28;16.20;;;7.05;;
63350;SDS011;54336;51.058;17.040;2022-10-20T07:33:20;15.60;;;7.72;;
63350;SDS011;54336;51.058;17.040;2022-10-20T07:39:13;11.85;;;7.82;;
63350;SDS011;54336;51.058;17.040;2022-10-20T07:45:06;15.15;;;7.80;;
63350;SDS011;54336;51.058;17.040;2022-10-20T07:57:10;16.05;;;7.70;;
63350;SDS011;54336;51.058;17.040;2022-10-20T08:03:02;12.88;;;7.47;;
63350;SDS011;54336;51.058;17.040;2022-10-20T08:08:54;12.52;;;7.13;;
63350;SDS011;54336;51.058;17.040;2022-10-20T08:14:46;11.10;;;6.53;;
63350;SDS011;54336;51.058;17.040;2022-10-20T08:20:52;16.60;;;6.88;;
63350;SDS011;54336;51.058;17.040;2022-10-20T08:26:44;10.65;;;5.82;;
63350;SDS011;54336;51.058;17.040;2022-10-20T08:32:36;10.75;;;6.22;;
63350;SDS011;54336;51.058;17.040;2022-10-20T08:38:29;12.10;;;6.15;;
63350;SDS011;54336;51.058;17.040;2022-10-20T08:44:25;8.10;;;4.82;;
63350;SDS011;54336;51.058;17.040;2022-10-20T08:50:18;9.05;;;5.38;;
63350;SDS011;54336;51.058;17.040;2022-10-20T08:56:12;8.75;;;4.93;;
63350;SDS011;54336;51.058;17.040;2022-10-20T09:02:12;10.20;;;4.50;;
63350;SDS011;54336;51.058;17.040;2022-10-20T09:08:06;12.30;;;4.50;;
63350;SDS011;54336;51.058;17.040;2022-10-20T09:13:58;7.43;;;4.88;;
63350;SDS011;54336;51.058;17.040;2022-10-20T09:19:53;9.00;;;5.10;;
63350;SDS011;54336;51.058;17.040;2022-10-20T09:25:46;6.80;;;3.85;;
63350;SDS011;54336;51.058;17.040;2022-10-20T09:31:40;7.70;;;4.43;;
63350;SDS011;54336;51.058;17.040;2022-10-20T09:37:33;8.48;;;4.07;;
63350;SDS011;54336;51.058;17.040;2022-10-20T09:43:27;10.57;;;3.80;;
63350;SDS011;54336;51.058;17.040;2022-10-20T09:49:22;9.05;;;3.67;;
63350;SDS011;54336;51.058;17.040;2022-10-20T10:01:15;5.95;;;3.13;;
63350;SDS011;54336;51.058;17.040;2022-10-20T10:13:19;2.55;;;1.90;;
63350;SDS011;54336;51.058;17.040;2022-10-20T10:19:16;10.50;;;2.77;;
63350;SDS011;54336;51.058;17.040;2022-10-20T10:25:18;3.30;;;2.22;;
63350;SDS011;54336;51.058;17.040;2022-10-20T10:37:09;4.15;;;2.17;;
63350;SDS011;54336;51.058;17.040;2022-10-20T11:07:46;5.53;;;2.58;;
63350;SDS011;54336;51.058;17.040;2022-10-20T11:13:51;3.22;;;2.15;;
63350;SDS011;54336;51.058;17.040;2022-10-20T11:26:09;3.20;;;1.40;;
63350;SDS011;54336;51.058;17.040;2022-10-20T11:50:17;1.00;;;1.00;;
63350;SDS011;54336;51.058;17.040;2022-10-20T11:56:17;6.15;;;3.28;;
63350;SDS011;54336;51.058;17.040;2022-10-20T12:14:23;1.80;;;1.35;;
63350;SDS011;54336;51.058;17.040;2022-10-20T12:32:33;4.80;;;2.85;;
63350;SDS011;54336;51.058;17.040;2022-10-20T12:38:27;4.45;;;2.63;;
63350;SDS011;54336;51.058;17.040;2022-10-20T12:44:20;4.22;;;3.10;;
63350;SDS011;54336;51.058;17.040;2022-10-20T12:56:10;2.65;;;1.50;;
63350;SDS011;54336;51.058;17.040;2022-10-20T13:08:02;4.32;;;2.55;;
63350;SDS011;54336;51.058;17.040;2022-10-20T13:26:15;7.93;;;4.13;;
63350;SDS011;54336;51.058;17.040;2022-10-20T13:32:16;3.75;;;2.20;;
63350;SDS011;54336;51.058;17.040;2022-10-20T13:38:15;3.80;;;2.50;;
63350;SDS011;54336;51.058;17.040;2022-10-20T13:44:19;4.95;;;2.47;;
63350;SDS011;54336;51.058;17.040;2022-10-20T13:50:20;6.72;;;3.00;;
63350;SDS011;54336;51.058;17.040;2022-10-20T14:08:30;9.05;;;3.25;;
63350;SDS011;54336;51.058;17.040;2022-10-20T14:14:23;6.80;;;3.22;;
63350;SDS011;54336;51.058;17.040;2022-10-20T14:20:18;4.05;;;3.13;;
63350;SDS011;54336;51.058;17.040;2022-10-20T14:26:18;6.28;;;2.63;;
63350;SDS011;54336;51.058;17.040;2022-10-20T14:32:16;3.65;;;2.20;;
63350;SDS011;54336;51.058;17.040;2022-10-20T14:44:13;8.18;;;2.25;;
63350;SDS011;54336;51.058;17.040;2022-10-20T14:50:24;4.80;;;2.50;;
63350;SDS011;54336;51.058;17.040;2022-10-20T14:56:21;10.13;;;3.40;;
63350;SDS011;54336;51.058;17.040;2022-10-20T15:02:15;5.43;;;2.45;;
63350;SDS011;54336;51.058;17.040;2022-10-20T15:14:11;6.13;;;3.25;;
63350;SDS011;54336;51.058;17.040;2022-10-20T15:26:16;6.45;;;4.35;;
63350;SDS011;54336;51.058;17.040;2022-10-20T15:32:08;12.05;;;4.32;;
63350;SDS011;54336;51.058;17.040;2022-10-20T15:38:01;12.90;;;4.20;;
63350;SDS011;54336;51.058;17.040;2022-10-20T15:43:53;9.77;;;5.72;;
63350;SDS011;54336;51.058;17.040;2022-10-20T15:49:45;8.60;;;4.35;;
63350;SDS011;54336;51.058;17.040;2022-10-20T15:55:39;7.78;;;4.53;;
63350;SDS011;54336;51.058;17.040;2022-10-20T16:01:32;14.60;;;5.43;;
63350;SDS011;54336;51.058;17.040;2022-10-20T16:07:25;12.13;;;5.35;;
63350;SDS011;54336;51.058;17.040;2022-10-20T16:13:17;10.68;;;3.88;;
63350;SDS011;54336;51.058;17.040;2022-10-20T16:19:12;12.65;;;4.78;;
63350;SDS011;54336;51.058;17.040;2022-10-20T16:25:05;11.30;;;5.37;;
63350;SDS011;54336;51.058;17.040;2022-10-20T16:31:05;9.17;;;4.97;;
63350;SDS011;54336;51.058;17.040;2022-10-20T16:36:57;17.83;;;5.97;;
63350;SDS011;54336;51.058;17.040;2022-10-20T16:42:49;16.02;;;7.80;;
63350;SDS011;54336;51.058;17.040;2022-10-20T16:48:41;20.42;;;5.60;;
63350;SDS011;54336;51.058;17.040;2022-10-20T16:54:38;13.30;;;5.18;;
63350;SDS011;54336;51.058;17.040;2022-10-20T17:00:31;10.17;;;5.20;;
63350;SDS011;54336;51.058;17.040;2022-10-20T17:06:24;16.98;;;6.82;;
63350;SDS011;54336;51.058;17.040;2022-10-20T17:12:17;15.65;;;7.60;;
63350;SDS011;54336;51.058;17.040;2022-10-20T17:18:10;17.40;;;8.13;;
63350;SDS011;54336;51.058;17.040;2022-10-20T17:24:02;17.88;;;8.23;;
63350;SDS011;54336;51.058;17.040;2022-10-20T17:29:55;23.70;;;7.03;;
63350;SDS011;54336;51.058;17.040;2022-10-20T17:35:47;11.82;;;5.55;;
63350;SDS011;54336;51.058;17.040;2022-10-20T17:41:39;12.38;;;5.43;;
63350;SDS011;54336;51.058;17.040;2022-10-20T17:53:25;9.82;;;4.97;;
63350;SDS011;54336;51.058;17.040;2022-10-20T17:59:17;8.35;;;4.70;;
63350;SDS011;54336;51.058;17.040;2022-10-20T18:05:09;8.95;;;3.30;;
63350;SDS011;54336;51.058;17.040;2022-10-20T18:11:02;10.88;;;3.85;;
63350;SDS011;54336;51.058;17.040;2022-10-20T18:16:54;11.17;;;4.13;;
63350;SDS011;54336;51.058;17.040;2022-10-20T18:22:47;15.67;;;5.50;;
63350;SDS011;54336;51.058;17.040;2022-10-20T18:28:40;12.07;;;4.80;;
63350;SDS011;54336;51.058;17.040;2022-10-20T18:34:39;12.70;;;4.95;;
63350;SDS011;54336;51.058;17.040;2022-10-20T18:40:32;13.70;;;5.82;;
63350;SDS011;54336;51.058;17.040;2022-10-20T18:46:25;11.90;;;5.05;;
63350;SDS011;54336;51.058;17.040;2022-10-20T18:52:18;12.25;;;5.75;;
63350;SDS011;54336;51.058;17.040;2022-10-20T18:58:11;13.90;;;5.85;;
63350;SDS011;54336;51.058;17.040;2022-10-20T19:04:03;11.27;;;5.57;;
63350;SDS011;54336;51.058;17.040;2022-10-20T19:09:56;13.68;;;5.25;;
63350;SDS011;54336;51.058;17.040;2022-10-20T19:15:49;9.65;;;5.03;;
63350;SDS011;54336;51.058;17.040;2022-10-20T19:21:45;10.05;;;4.63;;
63350;SDS011;54336;51.058;17.040;2022-10-20T19:27:42;5.65;;;3.80;;
63350;SDS011;54336;51.058;17.040;2022-10-20T19:33:36;13.85;;;5.28;;
63350;SDS011;54336;51.058;17.040;2022-10-20T19:39:31;11.57;;;5.85;;
63350;SDS011;54336;51.058;17.040;2022-10-20T19:51:15;21.05;;;7.40;;
63350;SDS011;54336;51.058;17.040;2022-10-20T19:57:08;13.00;;;5.60;;
63350;SDS011;54336;51.058;17.040;2022-10-20T20:03:00;16.77;;;5.03;;
63350;SDS011;54336;51.058;17.040;2022-10-20T20:08:55;15.25;;;7.18;;
63350;SDS011;54336;51.058;17.040;2022-10-20T20:14:49;15.45;;;7.28;;
63350;SDS011;54336;51.058;17.040;2022-10-20T20:20:42;21.90;;;8.55;;
63350;SDS011;54336;51.058;17.040;2022-10-20T20:26:35;19.70;;;6.78;;
63350;SDS011;54336;51.058;17.040;2022-10-20T20:32:28;22.85;;;7.95;;
63350;SDS011;54336;51.058;17.040;2022-10-20T20:38:21;15.52;;;6.68;;
63350;SDS011;54336;51.058;17.040;2022-10-20T20:44:14;12.77;;;7.90;;
63350;SDS011;54336;51.058;17.040;2022-10-20T20:50:07;11.02;;;5.57;;
63350;SDS011;54336;51.058;17.040;2022-10-20T20:56:02;13.27;;;6.07;;
63350;SDS011;54336;51.058;17.040;2022-10-20T21:01:55;17.02;;;8.07;;
63350;SDS011;54336;51.058;17.040;2022-10-20T21:07:47;15.02;;;8.57;;
63350;SDS011;54336;51.058;17.040;2022-10-20T21:13:39;17.60;;;7.30;;
63350;SDS011;54336;51.058;17.040;2022-10-20T21:19:32;9.48;;;5.15;;
63350;SDS011;54336;51.058;17.040;2022-10-20T21:25:24;17.13;;;6.45;;
63350;SDS011;54336;51.058;17.040;2022-10-20T21:31:17;11.55;;;5.63;;
63350;SDS011;54336;51.058;17.040;2022-10-20T21:37:09;34.25;;;8.10;;
63350;SDS011;54336;51.058;17.040;2022-10-20T21:43:01;13.88;;;5.78;;
63350;SDS011;54336;51.058;17.040;2022-10-20T21:48:54;18.42;;;3.92;;
63350;SDS011;54336;51.058;17.040;2022-10-20T21:54:46;3.78;;;1.95;;
63350;SDS011;54336;51.058;17.040;2022-10-20T22:00:38;11.73;;;6.05;;
63350;SDS011;54336;51.058;17.040;2022-10-20T22:06:30;12.07;;;4.78;;
63350;SDS011;54336;51.058;17.040;2022-10-20T22:12:22;11.85;;;5.50;;
63350;SDS011;54336;51.058;17.040;2022-10-20T22:18:14;19.13;;;6.28;;
63350;SDS011;54336;51.058;17.040;2022-10-20T22:24:06;17.45;;;7.53;;
63350;SDS011;54336;51.058;17.040;2022-10-20T22:29:59;14.95;;;6.70;;
63350;SDS011;54336;51.058;17.040;2022-10-20T22:35:51;21.67;;;8.00;;
63350;SDS011;54336;51.058;17.040;2022-10-20T22:41:43;15.93;;;5.60;;
63350;SDS011;54336;51.058;17.040;2022-10-20T22:47:35;12.38;;;6.13;;
63350;SDS011;54336;51.058;17.040;2022-10-20T22:53:28;10.57;;;4.45;;
63350;SDS011;54336;51.058;17.040;2022-10-20T22:59:20;9.55;;;4.68;;
63350;SDS011;54336;51.058;17.040;2022-10-20T23:05:12;14.30;;;5.55;;
63350;SDS011;54336;51.058;17.040;2022-10-20T23:11:05;11.20;;;5.43;;
63350;SDS011;54336;51.058;17.040;2022-10-20T23:16:57;8.27;;;3.67;;
63350;SDS011;54336;51.058;17.040;2022-10-20T23:22:50;10.60;;;3.30;;
63350;SDS011;54336;51.058;17.040;2022-10-20T23:28:42;16.67;;;5.53;;
63350;SDS011;54336;51.058;17.040;2022-10-20T23:34:35;15.82;;;6.97;;
63350;SDS011;54336;51.058;17.040;2022-10-20T23:40:27;21.20;;;8.23;;
63350;SDS011;54336;51.058;17.040;2022-10-20T23:46:20;19.55;;;7.13;;
63350;SDS011;54336;51.058;17.040;2022-10-20T23:52:12;19.33;;;7.53;;
63350;SDS011;54336;51.058;17.040;2022-10-20T23:58:04;15.55;;;6.90;;
